createdAt,value
2023-03-11T00:04:18.661Z,1.70
2023-03-11T00:09:25.129Z,1.40
2023-03-11T00:14:38.096Z,1.50
2023-03-11T00:19:43.864Z,1.50
2023-03-11T00:24:52.050Z,1.50
2023-03-11T00:29:56.874Z,1.40
2023-03-11T00:35:00.822Z,1.30
2023-03-11T00:40:11.246Z,1.30
2023-03-11T00:45:15.135Z,1.30
2023-03-11T00:50:23.285Z,1.20
2023-03-11T00:55:29.424Z,1.10
2023-03-11T01:00:34.396Z,1.10
2023-03-11T01:05:40.805Z,1.20
2023-03-11T01:10:45.646Z,1.00
2023-03-11T01:15:50.371Z,1.00
2023-03-11T01:20:57.211Z,1.10
2023-03-11T01:26:04.875Z,1.00
2023-03-11T01:31:12.557Z,0.90
2023-03-11T01:36:16.719Z,0.90
2023-03-11T01:41:21.948Z,0.80
2023-03-11T01:46:26.498Z,0.80
2023-03-11T01:51:36.369Z,0.60
2023-03-11T01:56:43.109Z,0.60
2023-03-11T02:01:51.075Z,0.60
2023-03-11T02:07:01.265Z,0.60
2023-03-11T02:12:09.538Z,0.40
2023-03-11T02:17:13.479Z,0.50
2023-03-11T02:22:19.416Z,0.40
2023-03-11T02:27:25.507Z,1.20
2023-03-11T02:32:33.392Z,0.50
2023-03-11T02:37:37.221Z,0.30
2023-03-11T02:42:44.678Z,0.20
2023-03-11T02:47:48.213Z,0.20
2023-03-11T02:52:53.190Z,0.10
2023-03-11T02:58:02.703Z,0.00
2023-03-11T03:03:06.303Z,-0.20
2023-03-11T03:08:13.171Z,-0.10
2023-03-11T03:13:20.369Z,-0.20
2023-03-11T03:18:27.346Z,-0.20
2023-03-11T03:23:35.160Z,-0.30
2023-03-11T03:28:41.954Z,-0.30
2023-03-11T03:33:45.372Z,-0.10
2023-03-11T03:38:48.582Z,-0.10
2023-03-11T03:43:54.777Z,-0.20
2023-03-11T03:48:58.620Z,0.10
2023-03-11T03:54:03.814Z,0.10
2023-03-11T03:59:09.777Z,0.00
2023-03-11T04:04:23.613Z,0.10
2023-03-11T04:09:27.454Z,0.10
2023-03-11T04:14:33.134Z,0.10
2023-03-11T04:19:37.849Z,0.10
2023-03-11T04:24:41.780Z,0.30
2023-03-11T04:29:47.668Z,0.10
2023-03-11T04:34:52.608Z,-0.10
2023-03-11T04:39:59.458Z,-0.10
2023-03-11T04:45:05.056Z,-0.20
2023-03-11T04:50:11.977Z,-0.40
2023-03-11T04:55:16.308Z,-0.40
2023-03-11T05:00:25.209Z,-0.50
2023-03-11T05:05:39.019Z,-0.50
2023-03-11T05:10:43.175Z,-0.40
2023-03-11T05:15:49.074Z,-0.30
2023-03-11T05:20:55.289Z,-0.20
2023-03-11T05:26:04.657Z,-0.10
2023-03-11T05:31:18.196Z,0.30
2023-03-11T05:36:23.944Z,0.20
2023-03-11T05:41:28.579Z,0.10
2023-03-11T05:46:33.792Z,-0.20
2023-03-11T05:51:42.579Z,-0.30
2023-03-11T05:56:47.314Z,-0.40
2023-03-11T06:01:55.367Z,-0.50
2023-03-11T06:07:02.141Z,-0.90
2023-03-11T06:12:10.288Z,-0.90
2023-03-11T06:17:41.768Z,-0.80
2023-03-11T06:22:46.153Z,-0.80
2023-03-11T06:27:51.522Z,-0.80
2023-03-11T06:32:58.329Z,-0.90
2023-03-11T06:38:02.173Z,-0.80
2023-03-11T06:43:05.815Z,-0.80
2023-03-11T06:48:14.455Z,-0.70
2023-03-11T06:53:17.924Z,-0.30
2023-03-11T06:58:21.373Z,0.00
2023-03-11T07:03:31.574Z,0.30
2023-03-11T07:08:36.140Z,1.00
2023-03-11T07:13:40.435Z,1.50
2023-03-11T07:18:50.376Z,1.60
2023-03-11T07:23:55.605Z,1.80
2023-03-11T07:29:01.373Z,2.00
2023-03-11T07:34:11.160Z,2.40
2023-03-11T07:39:18.960Z,2.50
2023-03-11T07:44:22.790Z,2.70
2023-03-11T07:49:27.853Z,3.50
2023-03-11T07:54:31.448Z,3.80
2023-03-11T07:59:35.077Z,4.30
2023-03-11T08:04:44.927Z,5.20
2023-03-11T08:09:50.514Z,5.10
2023-03-11T08:14:57.263Z,5.40
2023-03-11T08:20:02.042Z,6.00
2023-03-11T08:25:06.776Z,6.30
2023-03-11T08:30:12.965Z,6.40
2023-03-11T08:35:17.936Z,5.50
2023-03-11T08:40:23.107Z,5.20
2023-03-11T08:45:26.345Z,5.20
2023-03-11T08:50:53.840Z,5.80
2023-03-11T08:56:01.531Z,6.50
2023-03-11T09:01:14.115Z,6.80
2023-03-11T09:06:21.899Z,6.60
2023-03-11T09:11:26.625Z,8.00
2023-03-11T09:16:33.308Z,9.10
2023-03-11T09:21:40.680Z,9.70
2023-03-11T09:26:49.805Z,9.20
2023-03-11T09:31:55.553Z,7.90
2023-03-11T09:37:01.712Z,6.90
2023-03-11T09:42:07.665Z,5.60
2023-03-11T09:47:31.215Z,5.90
2023-03-11T09:52:39.732Z,4.60
2023-03-11T09:57:43.598Z,4.60
2023-03-11T10:02:48.321Z,5.30
2023-03-11T10:07:56.635Z,7.90
2023-03-11T10:13:04.400Z,8.70
2023-03-11T10:18:19.321Z,8.60
2023-03-11T10:23:27.396Z,7.60
2023-03-11T10:28:34.603Z,7.00
2023-03-11T10:33:41.515Z,6.10
2023-03-11T10:38:50.011Z,5.70
2023-03-11T10:44:04.368Z,6.10
2023-03-11T10:49:24.131Z,7.90
2023-03-11T10:54:31.579Z,6.80
2023-03-11T10:59:37.594Z,7.80
2023-03-11T11:04:42.266Z,6.80
2023-03-11T11:10:00.255Z,6.30
2023-03-11T11:15:03.533Z,7.10
2023-03-11T11:20:15.418Z,7.80
2023-03-11T11:30:31.642Z,10.10
2023-03-11T11:35:36.406Z,9.70
2023-03-11T11:40:40.136Z,8.80
2023-03-11T11:45:49.278Z,9.20
2023-03-11T11:50:54.558Z,10.40
2023-03-11T11:55:58.405Z,10.10
2023-03-11T12:01:19.031Z,9.60
2023-03-11T12:06:28.422Z,12.00
2023-03-11T12:11:36.781Z,9.90
2023-03-11T12:16:47.858Z,11.60
2023-03-11T12:22:40.034Z,10.70
2023-03-11T12:27:45.228Z,10.80
2023-03-11T12:32:51.847Z,8.50
2023-03-11T12:38:05.696Z,10.10
2023-03-11T12:43:42.609Z,8.90
2023-03-11T12:48:51.936Z,8.60
2023-03-11T12:53:58.846Z,9.60
2023-03-11T12:59:24.818Z,9.20
2023-03-11T13:04:56.837Z,8.40
2023-03-11T13:10:15.755Z,7.60
2023-03-11T13:15:39.427Z,8.70
2023-03-11T13:21:02.047Z,7.90
2023-03-11T13:26:22.203Z,7.30
2023-03-11T13:31:40.769Z,7.90
2023-03-11T13:37:08.110Z,8.00
2023-03-11T13:42:19.052Z,6.80
2023-03-11T13:47:46.792Z,7.30
2023-03-11T13:52:56.125Z,7.00
2023-03-11T13:58:03.227Z,6.70
2023-03-11T14:03:13.187Z,7.10
2023-03-11T14:08:25.883Z,8.00
2023-03-11T14:13:39.679Z,6.20
2023-03-11T14:18:46.664Z,7.90
2023-03-11T14:23:54.484Z,7.80
2023-03-11T14:29:11.447Z,7.60
2023-03-11T14:34:20.449Z,8.60
2023-03-11T14:39:27.875Z,10.00
2023-03-11T14:44:35.390Z,9.30
2023-03-11T14:49:39.602Z,8.70
2023-03-11T14:54:46.076Z,8.60
2023-03-11T14:59:52.813Z,9.00
2023-03-11T15:04:58.743Z,8.60
2023-03-11T15:10:08.205Z,10.70
2023-03-11T15:15:24.205Z,8.40
2023-03-11T15:20:31.475Z,9.00
2023-03-11T15:25:41.054Z,7.90
2023-03-11T15:31:16.975Z,10.20
2023-03-11T15:36:31.670Z,9.40
2023-03-11T15:41:36.821Z,9.80
2023-03-11T15:46:55.824Z,9.40
2023-03-11T15:52:10.522Z,9.90
2023-03-11T15:57:24.441Z,8.90
2023-03-11T16:02:33.660Z,8.30
2023-03-11T16:07:40.047Z,8.80
2023-03-11T16:12:46.765Z,7.20
2023-03-11T16:17:51.620Z,6.80
2023-03-11T16:22:58.810Z,6.80
2023-03-11T16:28:03.939Z,7.20
2023-03-11T16:33:10.872Z,7.60
2023-03-11T16:38:14.797Z,7.50
2023-03-11T16:43:30.329Z,7.40
2023-03-11T16:48:37.149Z,8.00
2023-03-11T16:53:50.636Z,8.20
2023-03-11T16:59:25.443Z,8.40
2023-03-11T17:04:29.724Z,9.10
2023-03-11T17:10:18.536Z,9.00
2023-03-11T17:15:45.957Z,8.10
2023-03-11T17:20:51.968Z,7.10
2023-03-11T17:25:56.146Z,6.40
2023-03-11T17:31:07.035Z,7.10
2023-03-11T17:36:13.229Z,5.90
2023-03-11T17:41:25.230Z,4.90
2023-03-11T17:46:33.359Z,4.50
2023-03-11T17:51:40.133Z,3.00
2023-03-11T17:56:45.192Z,3.80
2023-03-11T18:02:06.989Z,3.60
2023-03-11T18:12:31.145Z,3.90
2023-03-11T18:17:38.136Z,3.40
2023-03-11T18:22:48.532Z,3.00
2023-03-11T18:27:58.337Z,2.80
2023-03-11T18:33:04.350Z,2.60
2023-03-11T18:38:11.902Z,2.80
2023-03-11T18:43:16.736Z,1.90
2023-03-11T18:48:33.628Z,1.90
2023-03-11T18:53:37.878Z,1.90
2023-03-11T18:58:48.121Z,0.80
2023-03-11T19:04:02.016Z,1.40
2023-03-11T19:09:06.913Z,1.50
2023-03-11T19:14:11.445Z,1.30
2023-03-11T19:24:50.319Z,1.20
2023-03-11T19:29:59.057Z,1.20
2023-03-11T19:35:35.689Z,0.60
2023-03-11T19:40:42.221Z,1.20
2023-03-11T19:45:56.061Z,1.50
2023-03-11T19:51:02.495Z,1.10
2023-03-11T19:56:07.723Z,1.10
2023-03-11T20:01:18.805Z,0.90
2023-03-11T20:06:34.262Z,0.40
2023-03-11T20:11:41.042Z,0.70
2023-03-11T20:16:49.442Z,0.60
2023-03-11T20:22:03.184Z,2.10
2023-03-11T20:27:09.356Z,0.60
2023-03-11T20:32:13.596Z,0.10
2023-03-11T20:37:23.455Z,-1.30
2023-03-11T20:42:30.757Z,0.40
2023-03-11T20:47:34.731Z,2.10
2023-03-11T20:52:40.592Z,0.40
2023-03-11T20:57:44.310Z,0.60
2023-03-11T21:02:52.136Z,0.50
2023-03-11T21:08:01.369Z,0.50
2023-03-11T21:13:10.585Z,-0.70
2023-03-11T21:18:14.442Z,0.70
2023-03-11T21:23:25.721Z,0.80
2023-03-11T21:28:29.717Z,1.40
2023-03-11T21:33:33.578Z,1.00
2023-03-11T21:38:46.897Z,0.50
2023-03-11T21:43:57.420Z,0.60
2023-03-11T21:49:02.390Z,0.40
2023-03-11T21:54:11.252Z,-0.20
2023-03-11T21:59:27.275Z,0.20
2023-03-11T22:04:34.735Z,-0.90
2023-03-11T22:09:41.092Z,0.40
2023-03-11T22:14:52.697Z,1.40
2023-03-11T22:19:57.253Z,0.30
2023-03-11T22:25:04.589Z,0.30
2023-03-11T22:30:11.972Z,0.40
2023-03-11T22:35:16.238Z,0.90
2023-03-11T22:40:21.702Z,0.90
2023-03-11T22:45:25.980Z,0.50
2023-03-11T22:50:31.181Z,0.90
2023-03-11T22:55:40.685Z,0.90
2023-03-11T23:00:45.173Z,0.80
2023-03-11T23:05:50.946Z,1.10
2023-03-11T23:10:59.248Z,1.80
2023-03-11T23:16:08.543Z,0.80
2023-03-11T23:21:16.977Z,1.20
2023-03-11T23:26:47.366Z,1.40
2023-03-11T23:31:55.047Z,1.10
2023-03-11T23:36:59.493Z,0.00
2023-03-11T23:42:18.598Z,2.30
2023-03-11T23:47:29.009Z,0.90
2023-03-11T23:52:41.926Z,1.10
2023-03-11T23:57:53.889Z,0.80
